Time;durP1;ratioP1;P1;durP2;ratioP2;P2;SDS_P1;SDS_P2;PMS_P1;PMS_P2;Temp;Humidity;BMP_temperature;BMP_pressure;BME280_temperature;BME280_humidity;BME280_pressure;Samples;Min_cycle;Max_cycle;Signal;HPM_P1;HPM_P2
2021/08/17 00:01:36;;;;;;;4.78;3.42;;;;;;;22.52;39.09;96969.16;5052670;28;20518;-78
2021/08/17 00:04:02;;;;;;;5.72;4.10;;;;;;;22.83;40.77;96982.72;5071321;28;20387;-77
2021/08/17 00:06:27;;;;;;;6.18;3.55;;;;;;;23.37;37.44;96966.13;5069665;28;20021;-77
2021/08/17 00:08:53;;;;;;;7.57;3.67;;;;;;;23.95;35.13;96954.28;5071011;28;20029;-77
2021/08/17 00:11:18;;;;;;;8.00;3.55;;;;;;;24.08;35.71;96968.94;5070759;28;20035;-78
2021/08/17 00:13:47;;;;;;;4.07;3.15;;;;;;;24.23;34.91;96966.19;5069645;28;20103;-78
2021/08/17 00:16:12;;;;;;;6.05;3.60;;;;;;;24.42;34.27;96959.22;5069428;28;20468;-77
2021/08/17 00:18:38;;;;;;;6.05;3.40;;;;;;;24.74;33.46;96958.66;5070635;28;20033;-77
2021/08/17 00:21:03;;;;;;;6.95;3.88;;;;;;;24.89;33.20;96955.91;5069714;28;20403;-78
2021/08/17 00:23:30;;;;;;;7.88;3.55;;;;;;;24.87;33.30;96963.44;5068902;28;20048;-76
2021/08/17 00:25:55;;;;;;;14.80;3.28;;;;;;;24.98;32.11;96947.31;5070688;28;20029;-78
2021/08/17 00:28:21;;;;;;;5.35;3.47;;;;;;;25.29;31.35;96945.00;5069601;28;20557;-77
2021/08/17 00:30:46;;;;;;;24.75;4.47;;;;;;;25.45;31.19;96943.81;5070610;28;20103;-77
2021/08/17 00:33:12;;;;;;;16.33;3.80;;;;;;;25.53;31.15;96949.19;5069508;28;20024;-77
2021/08/17 00:35:38;;;;;;;39.67;5.20;;;;;;;25.71;30.77;96937.69;5069578;28;20499;-77
2021/08/17 00:38:03;;;;;;;5.13;3.50;;;;;;;25.74;30.55;96926.31;5069384;28;20060;-77
2021/08/17 00:40:29;;;;;;;7.43;3.88;;;;;;;25.71;30.65;96935.78;5069299;28;20029;-77
2021/08/17 00:42:55;;;;;;;101.45;9.18;;;;;;;25.74;30.42;96931.78;5069245;28;20066;-77
2021/08/17 00:45:22;;;;;;;7.13;3.40;;;;;;;25.78;30.36;96933.91;5069115;28;20035;-77
2021/08/17 00:47:52;;;;;;;6.72;3.13;;;;;;;25.81;30.67;96935.38;5086126;28;20028;-77
2021/08/17 00:50:22;;;;;;;6.78;3.17;;;;;;;25.71;31.24;96940.41;5069581;28;20365;-77
2021/08/17 00:52:49;;;;;;;6.13;3.80;;;;;;;25.47;32.30;96952.69;5089816;28;20028;-77
2021/08/17 00:55:15;;;;;;;10.77;3.60;;;;;;;25.19;32.69;96951.91;5089983;28;20024;-77
2021/08/17 00:57:41;;;;;;;6.13;3.75;;;;;;;25.11;31.88;96939.19;5074004;28;20036;-77
2021/08/17 01:00:08;;;;;;;17.65;5.28;;;;;;;25.24;31.68;96932.97;5089702;28;20024;-77
2021/08/17 01:02:34;;;;;;;4.68;3.55;;;;;;;25.06;32.76;96947.19;5072997;28;20032;-77
2021/08/17 01:05:00;;;;;;;5.30;3.53;;;;;;;24.66;34.40;96950.63;5072846;28;20115;-77
2021/08/17 01:07:26;;;;;;;9.02;3.42;;;;;;;24.57;33.46;96943.59;5074173;28;20020;-77
2021/08/17 01:09:52;;;;;;;5.78;3.90;;;;;;;24.59;33.17;96941.50;5072397;28;20097;-77
2021/08/17 01:12:17;;;;;;;6.45;3.60;;;;;;;24.64;33.00;96942.59;5073899;28;20044;-76
2021/08/17 01:14:43;;;;;;;6.07;3.75;;;;;;;24.73;32.76;96937.84;5073484;28;20032;-76
2021/08/17 01:17:09;;;;;;;6.13;3.40;;;;;;;24.65;33.47;96944.28;5055965;28;20025;-77
2021/08/17 01:19:35;;;;;;;5.75;3.88;;;;;;;24.41;34.41;96950.19;5073548;28;20028;-77
2021/08/17 01:22:01;;;;;;;10.90;3.70;;;;;;;24.31;34.37;96946.06;5072314;28;20028;-76
2021/08/17 01:24:27;;;;;;;6.07;3.67;;;;;;;24.37;34.19;96935.19;5055770;28;20492;-77
2021/08/17 01:26:52;;;;;;;5.05;3.55;;;;;;;24.54;33.24;96946.72;5072328;28;20449;-76
2021/08/17 01:29:20;;;;;;;5.90;3.40;;;;;;;24.62;33.17;96939.22;5055710;28;20074;-77
2021/08/17 01:31:46;;;;;;;4.55;3.40;;;;;;;24.65;33.28;96943.44;5072411;28;20039;-77
2021/08/17 01:34:12;;;;;;;4.88;3.85;;;;;;;24.66;32.97;96940.53;5072067;28;20028;-77
2021/08/17 01:36:37;;;;;;;7.78;3.78;;;;;;;24.65;32.96;96937.97;5089144;28;20097;-77
2021/08/17 01:39:03;;;;;;;4.45;3.58;;;;;;;24.65;32.92;96927.03;5071930;28;20438;-77
2021/08/17 01:41:29;;;;;;;4.78;3.55;;;;;;;24.73;32.80;96943.31;5055741;28;20036;-76
2021/08/17 01:43:55;;;;;;;5.53;3.95;;;;;;;24.79;32.75;96939.78;5071876;28;20097;-76
2021/08/17 01:46:21;;;;;;;12.35;3.95;;;;;;;24.78;32.71;96935.34;5072205;28;20037;-77
2021/08/17 01:48:47;;;;;;;6.95;3.60;;;;;;;24.68;33.53;96940.31;5071515;28;20114;-77
2021/08/17 01:51:12;;;;;;;4.35;3.42;;;;;;;24.52;33.95;96937.84;5072139;28;20552;-77
2021/08/17 01:53:38;;;;;;;4.97;3.80;;;;;;;24.49;33.92;96947.28;5055198;28;20412;-77
2021/08/17 01:56:12;;;;;;;4.90;3.50;;;;;;;24.43;33.92;96955.44;5071904;28;20103;-77
2021/08/17 01:58:42;;;;;;;9.20;4.30;;;;;;;24.13;34.72;96939.19;5069575;28;20029;-76
2021/08/17 02:01:10;;;;;;;6.40;3.90;;;;;;;24.03;35.52;96960.47;5071569;28;20024;-76
2021/08/17 02:03:35;;;;;;;9.57;3.53;;;;;;;23.79;36.17;96960.81;5072030;28;20028;-77
2021/08/17 02:06:01;;;;;;;7.82;4.03;;;;;;;23.70;35.56;96953.78;5071574;28;20112;-77
2021/08/17 02:08:27;;;;;;;5.85;4.03;;;;;;;23.55;36.56;96956.53;5072964;28;20021;-77
2021/08/17 02:10:52;;;;;;;5.72;4.60;;;;;;;23.31;37.70;96964.13;5055020;28;20496;-77
2021/08/17 02:13:18;;;;;;;7.35;4.18;;;;;;;23.09;37.38;96965.91;5071624;28;20408;-77
2021/08/17 02:15:45;;;;;;;6.10;4.15;;;;;;;22.91;38.80;96966.28;5071682;28;20163;-75
2021/08/17 02:18:11;;;;;;;8.43;4.25;;;;;;;22.83;38.89;96960.88;5071160;28;20016;-75
2021/08/17 02:20:38;;;;;;;8.55;3.70;;;;;;;22.94;38.21;96957.72;5071343;28;20043;-76
2021/08/17 02:23:03;;;;;;;5.55;4.00;;;;;;;22.96;37.36;96936.56;5087901;28;20483;-75
2021/08/17 02:25:29;;;;;;;7.90;4.15;;;;;;;23.07;39.38;96954.34;5071373;28;20027;-75
2021/08/17 02:27:54;;;;;;;8.75;4.90;;;;;;;23.04;39.09;96952.81;5071408;28;20113;-76
2021/08/17 02:30:20;;;;;;;8.88;4.90;;;;;;;22.53;42.38;96975.47;5070982;28;20024;-75
2021/08/17 02:32:46;;;;;;;9.35;5.63;;;;;;;21.92;44.49;96982.72;5071375;28;20020;-75
2021/08/17 02:35:11;;;;;;;12.32;6.35;;;;;;;21.38;45.59;96989.91;5054412;28;20039;-75
2021/08/17 02:37:37;;;;;;;8.77;6.07;;;;;;;21.07;46.81;96997.94;5071083;28;20508;-75
2021/08/17 02:40:05;;;;;;;17.38;6.00;;;;;;;20.79;47.55;96999.38;5071387;28;20484;-75
2021/08/17 02:42:32;;;;;;;10.52;5.47;;;;;;;20.68;48.04;96994.28;5087780;28;20046;-75
2021/08/17 02:44:57;;;;;;;7.22;4.45;;;;;;;20.62;46.34;96992.25;5072034;28;20082;-75
2021/08/17 02:47:23;;;;;;;11.57;5.38;;;;;;;20.60;47.62;96993.44;5070870;28;20032;-75
2021/08/17 02:49:49;;;;;;;12.75;6.43;;;;;;;20.64;47.38;96990.19;5068088;28;20024;-75
2021/08/17 02:52:14;;;;;;;12.65;5.30;;;;;;;20.57;47.32;96978.34;5068113;28;20027;-75
2021/08/17 02:54:41;;;;;;;9.77;5.82;;;;;;;20.73;46.96;96988.34;5070707;28;20021;-75
2021/08/17 02:57:07;;;;;;;10.15;5.07;;;;;;;20.77;46.85;96979.66;5054142;28;20116;-75
2021/08/17 02:59:33;;;;;;;9.40;6.70;;;;;;;20.78;46.86;96980.50;5070424;28;20102;-75
2021/08/17 03:02:25;;;;;;;12.25;5.78;;;;;;;20.85;46.57;96976.09;5070678;28;20476;-78
2021/08/17 03:04:50;;;;;;;7.50;4.40;;;;;;;21.33;42.68;96972.41;5070402;28;20020;-76
2021/08/17 03:07:16;;;;;;;8.27;3.85;;;;;;;21.53;42.47;96960.09;5071671;28;20143;-75
2021/08/17 03:09:41;;;;;;;6.75;4.32;;;;;;;21.69;41.42;96954.53;5070116;28;20043;-76
2021/08/17 03:12:07;;;;;;;16.10;5.60;;;;;;;21.98;41.47;96965.66;5070603;28;20024;-76
2021/08/17 03:14:33;;;;;;;21.83;7.85;;;;;;;22.01;43.30;96978.91;5053188;28;20028;-76
2021/08/17 03:16:58;;;;;;;13.52;5.93;;;;;;;21.70;44.65;96982.63;5070145;28;20545;-75
2021/08/17 03:19:24;;;;;;;10.07;4.72;;;;;;;21.55;42.68;96955.31;5070318;28;20415;-76
2021/08/17 03:21:49;;;;;;;6.65;4.57;;;;;;;21.69;43.50;96967.34;5070280;28;20111;-75
2021/08/17 03:24:15;;;;;;;8.23;3.55;;;;;;;21.99;40.70;96961.06;5071268;28;20041;-81
2021/08/17 03:26:40;;;;;;;7.30;4.20;;;;;;;22.30;39.79;96950.09;5053424;28;20033;-75
2021/08/17 03:29:06;;;;;;;11.88;3.80;;;;;;;22.62;39.04;96956.13;5071401;28;20027;-75
2021/08/17 03:31:31;;;;;;;5.75;3.65;;;;;;;22.95;38.17;96944.94;5053304;28;20114;-75
2021/08/17 03:33:57;;;;;;;11.65;4.05;;;;;;;22.91;38.50;96947.19;5069721;28;20426;-76
2021/08/17 03:36:22;;;;;;;10.15;5.13;;;;;;;22.79;40.58;96962.31;5053077;28;20503;-76
2021/08/17 03:38:48;;;;;;;9.30;4.03;;;;;;;22.52;40.33;96960.13;5070394;28;20111;-76
2021/08/17 03:41:14;;;;;;;12.40;4.60;;;;;;;22.40;40.81;96954.25;5070007;28;20056;-76
2021/08/17 03:43:39;;;;;;;7.80;4.30;;;;;;;22.45;39.95;96962.75;5069801;28;20017;-75
2021/08/17 03:46:05;;;;;;;61.50;6.47;;;;;;;22.63;39.65;96948.78;5070146;28;20021;-77
2021/08/17 03:48:32;;;;;;;14.38;4.68;;;;;;;22.68;39.51;96957.28;5069605;28;20442;-75
2021/08/17 03:50:57;;;;;;;9.75;5.38;;;;;;;22.61;41.24;96964.50;5070015;28;20024;-75
2021/08/17 03:53:23;;;;;;;12.35;5.43;;;;;;;22.31;43.92;96987.22;5069889;28;20546;-75
2021/08/17 03:55:48;;;;;;;8.35;4.78;;;;;;;21.82;44.58;96986.66;5071318;28;20088;-75
2021/08/17 03:58:14;;;;;;;6.43;3.88;;;;;;;21.60;42.86;96971.94;5070559;28;20020;-75
2021/08/17 04:00:39;;;;;;;8.50;4.60;;;;;;;21.58;43.30;96971.28;5052642;28;20024;-75
2021/08/17 04:03:06;;;;;;;18.00;5.88;;;;;;;22.05;43.03;96969.38;5069682;28;20082;-76
2021/08/17 04:05:31;;;;;;;15.32;6.45;;;;;;;22.15;43.81;96960.94;5070618;28;20111;-76
2021/08/17 04:07:57;;;;;;;11.45;4.95;;;;;;;21.96;44.09;96967.72;5069701;28;20463;-76
2021/08/17 04:10:22;;;;;;;12.45;4.63;;;;;;;21.89;43.97;96966.72;5052939;28;20442;-76
2021/08/17 04:12:48;;;;;;;8.43;5.35;;;;;;;21.82;44.82;96975.75;5070685;28;20056;-77
2021/08/17 04:15:14;;;;;;;13.75;5.05;;;;;;;21.71;44.70;96968.84;5069342;28;20043;-76
2021/08/17 04:17:40;;;;;;;12.43;4.72;;;;;;;22.04;41.79;96955.91;5070988;28;20047;-78
2021/08/17 04:20:08;;;;;;;5.82;4.50;;;;;;;22.33;41.27;96971.53;5069632;28;20029;-78
2021/08/17 04:22:34;;;;;;;13.10;4.45;;;;;;;22.47;40.85;96951.66;5086121;28;20035;-76
2021/08/17 04:25:00;;;;;;;14.65;5.47;;;;;;;22.65;40.77;96963.09;5052374;28;20440;-77
2021/08/17 04:27:25;;;;;;;15.38;5.72;;;;;;;22.52;41.87;96962.84;5056430;28;20029;-77
2021/08/17 04:29:51;;;;;;;16.48;5.78;;;;;;;22.39;42.56;96966.22;5074599;28;20020;-77
2021/08/17 04:32:17;;;;;;;13.40;5.90;;;;;;;22.30;42.79;96972.75;5056621;28;20027;-76
2021/08/17 04:34:43;;;;;;;8.10;4.28;;;;;;;22.41;40.81;96957.84;5073502;28;20411;-77
2021/08/17 04:37:08;;;;;;;9.45;4.28;;;;;;;22.86;39.20;96952.34;5073302;28;20104;-77
2021/08/17 04:39:34;;;;;;;23.33;5.10;;;;;;;23.16;39.60;96956.78;5073507;28;20496;-78
2021/08/17 04:42:00;;;;;;;11.70;4.63;;;;;;;23.25;38.98;96959.44;5073099;28;20035;-78
2021/08/17 04:44:26;;;;;;;6.95;4.85;;;;;;;23.36;38.22;96954.34;5074928;28;20033;-78
2021/08/17 04:46:51;;;;;;;10.45;4.45;;;;;;;23.52;38.33;96956.06;5074441;28;20539;-77
2021/08/17 04:49:17;;;;;;;14.60;4.68;;;;;;;23.44;38.24;96954.25;5074463;28;20540;-78
2021/08/17 04:51:43;;;;;;;14.32;5.47;;;;;;;23.39;38.82;96956.72;5056345;28;20107;-78
2021/08/17 04:54:08;;;;;;;8.27;4.03;;;;;;;23.57;37.92;96954.44;5073845;28;20032;-78
2021/08/17 04:56:34;;;;;;;8.15;3.78;;;;;;;23.71;37.47;96955.47;5073229;28;20085;-78
2021/08/17 04:58:59;;;;;;;13.98;4.00;;;;;;;23.90;37.55;96952.16;5074118;28;20385;-77
2021/08/17 05:01:25;;;;;;;10.70;4.10;;;;;;;23.90;37.14;96954.03;5074340;28;20024;-77
2021/08/17 05:03:50;;;;;;;10.25;4.55;;;;;;;23.99;37.57;96956.44;5072964;28;20381;-77
2021/08/17 05:06:16;;;;;;;10.50;4.60;;;;;;;24.16;36.90;96949.72;5073185;28;20107;-77
2021/08/17 05:08:42;;;;;;;29.10;5.00;;;;;;;24.24;37.09;96938.66;5073123;28;20055;-77
2021/08/17 05:11:07;;;;;;;119.85;11.80;;;;;;;24.36;37.02;96947.19;5056006;28;20025;-76
2021/08/17 05:13:33;;;;;;;25.65;5.65;;;;;;;24.66;36.34;96950.63;5056403;28;20035;-77
2021/08/17 05:15:58;;;;;;;24.65;4.80;;;;;;;24.84;36.74;96950.16;5072751;28;20039;-77
2021/08/17 05:18:24;;;;;;;90.70;9.27;;;;;;;24.88;37.41;96954.19;5074029;28;20067;-79
2021/08/17 05:20:50;;;;;;;36.63;7.57;;;;;;;25.09;38.82;96968.69;5056191;28;20028;-77
2021/08/17 05:23:16;;;;;;;27.77;8.55;;;;;;;24.67;40.65;96980.50;5072609;28;20048;-77
2021/08/17 05:25:41;;;;;;;13.10;6.85;;;;;;;24.53;40.68;96977.84;5073773;28;20051;-78
2021/08/17 05:28:07;;;;;;;27.35;6.50;;;;;;;24.31;41.43;96973.41;5072321;28;20055;-75
2021/08/17 05:30:32;;;;;;;11.88;5.93;;;;;;;24.34;41.64;96970.28;5073716;28;20024;-76
2021/08/17 05:32:58;;;;;;;28.83;8.88;;;;;;;24.46;41.29;96971.44;5055649;28;20032;-77
2021/08/17 05:35:24;;;;;;;11.63;5.57;;;;;;;25.49;39.33;96980.75;5055737;28;20097;-77
2021/08/17 05:37:49;;;;;;;34.95;6.47;;;;;;;27.91;34.92;96962.91;5072808;28;20028;-76
2021/08/17 05:40:15;;;;;;;32.65;7.28;;;;;;;29.71;32.01;96938.25;5072320;28;20438;-78
2021/08/17 05:42:40;;;;;;;36.33;12.18;;;;;;;31.44;29.38;96934.44;5056430;28;20482;-74
2021/08/17 05:45:07;;;;;;;290.85;48.05;;;;;;;32.66;29.41;96934.03;5072330;28;20031;-77
2021/08/17 05:47:33;;;;;;;18.92;5.70;;;;;;;33.14;26.88;96933.50;5055652;28;20115;-78
2021/08/17 05:49:58;;;;;;;50.00;9.23;;;;;;;32.01;28.46;96940.97;5073569;28;20103;-80
2021/08/17 05:52:24;;;;;;;36.42;7.93;;;;;;;33.31;27.55;96940.97;5072331;28;20509;-82
2021/08/17 05:54:50;;;;;;;33.05;8.40;;;;;;;35.05;24.85;96925.13;5072541;28;20056;-82
2021/08/17 05:57:15;;;;;;;37.15;12.65;;;;;;;35.74;24.07;96929.59;5055340;28;20020;-82
2021/08/17 05:59:41;;;;;;;26.08;6.60;;;;;;;34.87;26.27;96936.66;5073250;28;20028;-83
2021/08/17 06:02:07;;;;;;;30.55;8.02;;;;;;;35.72;25.19;96937.38;5071903;28;20028;-82
2021/08/17 06:04:32;;;;;;;32.63;7.45;;;;;;;35.16;24.00;96922.19;5072048;28;20033;-82
2021/08/17 06:06:58;;;;;;;20.08;9.15;;;;;;;35.31;23.66;96924.28;5055168;28;20055;-82
2021/08/17 06:09:24;;;;;;;28.13;9.25;;;;;;;34.53;25.02;96934.06;5071941;28;20028;-81
2021/08/17 06:11:53;;;;;;;25.90;11.07;;;;;;;35.68;24.18;96938.19;5072612;28;20093;-81
2021/08/17 06:14:18;;;;;;;29.02;13.07;;;;;;;35.46;24.45;96938.28;5088715;28;20469;-82
2021/08/17 06:16:44;;;;;;;19.25;9.00;;;;;;;35.78;23.94;96933.50;5071867;28;20031;-83
2021/08/17 06:19:10;;;;;;;33.63;11.77;;;;;;;37.58;22.79;96938.19;5072108;28;20036;-83
2021/08/17 06:21:36;;;;;;;36.53;13.60;;;;;;;38.52;21.18;96927.03;5072178;28;20389;-83
2021/08/17 06:24:03;;;;;;;42.72;13.75;;;;;;;38.72;22.69;96926.91;5071928;28;20451;-82
2021/08/17 06:26:29;;;;;;;33.58;14.85;;;;;;;38.77;21.29;96907.28;5072752;28;20028;-82
2021/08/17 06:28:54;;;;;;;32.17;12.70;;;;;;;38.08;21.93;96918.56;5073230;28;20066;-82
2021/08/17 06:31:23;;;;;;;32.88;11.38;;;;;;;37.76;22.11;96918.88;5088974;28;20533;-83
2021/08/17 06:33:53;;;;;;;27.13;7.57;;;;;;;38.54;21.72;96908.00;5056105;28;20032;-82
2021/08/17 06:36:20;;;;;;;29.27;8.57;;;;;;;38.97;19.83;96901.59;5073443;28;20028;-81
2021/08/17 06:38:47;;;;;;;19.33;7.28;;;;;;;40.37;18.03;96903.25;5073614;28;20411;-82
2021/08/17 06:41:13;;;;;;;7.95;4.65;;;;;;;40.43;17.93;96901.22;5074049;28;20075;-82
2021/08/17 06:43:38;;;;;;;16.42;5.53;;;;;;;40.38;17.10;96895.69;5089486;28;20060;-82
2021/08/17 06:46:04;;;;;;;54.60;8.23;;;;;;;38.86;18.89;96888.78;5071776;28;20032;-80
2021/08/17 06:48:30;;;;;;;9.50;4.63;;;;;;;39.68;17.90;96898.19;5071692;28;20024;-81
2021/08/17 06:50:56;;;;;;;12.63;5.15;;;;;;;39.12;19.48;96892.22;5071784;28;20496;-81
2021/08/17 06:53:21;;;;;;;10.82;4.53;;;;;;;39.90;17.95;96887.28;5071160;28;20028;-82
2021/08/17 06:55:47;;;;;;;13.40;4.80;;;;;;;40.78;17.90;96892.34;5071078;28;20028;-82
2021/08/17 06:58:13;;;;;;;15.60;5.05;;;;;;;42.31;16.06;96886.50;5071013;28;20041;-81
2021/08/17 07:00:43;;;;;;;25.92;5.70;;;;;;;43.06;16.07;96891.59;5071116;28;20121;-82
2021/08/17 07:03:09;;;;;;;12.85;4.78;;;;;;;42.72;16.57;96883.66;5070958;28;20031;-81
2021/08/17 07:05:40;;;;;;;10.48;4.15;;;;;;;43.84;15.12;96884.53;5054331;28;20028;-82
2021/08/17 07:08:06;;;;;;;;;;;;;;;43.85;14.81;96883.38;5071187;28;20024;-80
2021/08/17 07:10:32;;;;;;;9.32;4.00;;;;;;;43.59;15.40;96884.03;5070958;28;19920;-81
2021/08/17 07:12:58;;;;;;;5.53;4.05;;;;;;;44.18;15.74;96879.88;5053983;28;20043;-79
2021/08/17 07:15:23;;;;;;;8.05;4.28;;;;;;;43.98;14.45;96880.44;5053853;28;20479;-81
2021/08/17 07:17:49;;;;;;;8.93;4.53;;;;;;;44.12;15.04;96891.59;5070792;28;20577;-80
2021/08/17 07:20:15;;;;;;;8.13;4.35;;;;;;;43.34;15.40;96883.84;5070279;28;20129;-79
2021/08/17 07:22:41;;;;;;;13.88;5.53;;;;;;;42.99;14.88;96868.69;5070723;28;20396;-81
2021/08/17 07:25:07;;;;;;;8.00;4.32;;;;;;;43.98;15.00;96874.81;5070450;28;20045;-80
2021/08/17 07:27:33;;;;;;;9.43;4.57;;;;;;;42.98;15.36;96867.03;5053971;28;20024;-80
2021/08/17 07:29:58;;;;;;;8.30;4.60;;;;;;;41.77;15.58;96862.03;5070621;28;20111;-80
2021/08/17 07:32:24;;;;;;;9.05;4.50;;;;;;;41.63;15.45;96870.41;5070293;28;20126;-80
2021/08/17 07:34:50;;;;;;;8.63;5.00;;;;;;;39.85;16.97;96861.28;5070321;28;20137;-80
2021/08/17 07:37:15;;;;;;;17.02;5.80;;;;;;;40.25;17.04;96865.56;5070384;28;20035;-81
2021/08/17 07:39:41;;;;;;;19.90;5.93;;;;;;;42.57;16.04;96876.41;5070368;28;20036;-79
2021/08/17 07:42:07;;;;;;;24.95;6.50;;;;;;;42.99;14.56;96865.84;5070573;28;20026;-78
2021/08/17 07:44:34;;;;;;;10.98;6.28;;;;;;;42.04;14.79;96870.47;5053267;28;20418;-76
2021/08/17 07:47:00;;;;;;;9.25;5.70;;;;;;;42.53;14.80;96871.69;5070241;28;20023;-77
2021/08/17 07:49:25;;;;;;;9.85;6.30;;;;;;;42.18;15.07;96866.84;5069729;28;20029;-77
2021/08/17 07:51:51;;;;;;;9.05;5.32;;;;;;;42.53;15.09;96860.44;5053634;28;20032;-77
2021/08/17 07:54:17;;;;;;;6.63;5.60;;;;;;;41.79;15.22;96875.75;5071020;28;20024;-77
2021/08/17 07:56:42;;;;;;;8.38;5.88;;;;;;;43.45;14.11;96876.81;5071348;28;20036;-77
2021/08/17 07:59:08;;;;;;;11.40;5.70;;;;;;;43.32;13.84;96869.28;5069817;28;20480;-77
2021/08/17 08:01:33;;;;;;;6.20;5.28;;;;;;;43.31;14.34;96870.41;5069832;28;20043;-77
2021/08/17 08:04:00;;;;;;;8.18;5.50;;;;;;;43.29;14.29;96867.91;5070095;28;20039;-79
2021/08/17 08:06:25;;;;;;;9.05;5.65;;;;;;;43.70;13.99;96859.22;5069751;28;20024;-76
2021/08/17 08:08:51;;;;;;;16.58;5.70;;;;;;;43.89;13.87;96871.13;5069987;28;20149;-79
2021/08/17 08:11:17;;;;;;;25.60;6.32;;;;;;;43.99;13.63;96867.19;5069799;28;20024;-77
2021/08/17 08:13:42;;;;;;;10.35;5.65;;;;;;;44.90;13.63;96873.72;5069938;28;20028;-77
2021/08/17 08:16:08;;;;;;;8.57;5.75;;;;;;;44.73;13.42;96871.72;5052976;28;20036;-77
2021/08/17 08:18:33;;;;;;;26.17;6.05;;;;;;;45.23;13.28;96874.91;5070747;28;20127;-76
2021/08/17 08:20:59;;;;;;;12.80;5.25;;;;;;;46.28;12.89;96880.81;5052871;28;20071;-78
2021/08/17 08:23:24;;;;;;;8.63;5.30;;;;;;;45.49;13.11;96863.59;5069510;28;20040;-77
2021/08/17 08:25:50;;;;;;;9.10;5.38;;;;;;;44.44;13.70;96859.38;5070404;28;20393;-77
2021/08/17 08:28:16;;;;;;;21.90;6.65;;;;;;;45.00;13.70;96862.13;5069556;28;20016;-77
2021/08/17 08:30:41;;;;;;;53.28;7.25;;;;;;;45.14;13.59;96861.94;5069726;28;20462;-77
2021/08/17 08:33:07;;;;;;;15.38;5.90;;;;;;;45.46;13.41;96860.59;5052740;28;20051;-77
2021/08/17 08:35:33;;;;;;;10.00;5.30;;;;;;;45.22;13.38;96853.47;5052659;28;20036;-77
2021/08/17 08:37:58;;;;;;;9.32;5.20;;;;;;;44.71;14.07;96859.94;5069699;28;20064;-77
2021/08/17 08:40:25;;;;;;;8.20;5.30;;;;;;;44.99;13.91;96843.53;5069440;28;20024;-77
2021/08/17 08:42:52;;;;;;;7.55;4.97;;;;;;;44.61;14.23;96843.31;5086562;28;20034;-77
2021/08/17 08:45:18;;;;;;;6.10;5.18;;;;;;;44.68;14.03;96842.81;5069389;28;20027;-77
2021/08/17 08:47:43;;;;;;;6.95;5.45;;;;;;;45.05;13.71;96845.00;5069463;28;20480;-78
2021/08/17 08:50:10;;;;;;;14.55;6.40;;;;;;;46.13;13.31;96853.09;5069658;28;20035;-78
2021/08/17 08:52:35;;;;;;;7.63;5.82;;;;;;;46.45;13.55;96850.78;5070624;28;20037;-78
2021/08/17 08:55:02;;;;;;;9.98;5.50;;;;;;;46.79;12.36;96833.56;5070961;28;20028;-78
2021/08/17 08:57:29;;;;;;;8.25;7.45;;;;;;;46.07;12.91;96843.13;5070531;28;20400;-77
2021/08/17 08:59:54;;;;;;;6.07;5.13;;;;;;;45.98;13.35;96856.47;5069403;28;20016;-78
2021/08/17 09:02:21;;;;;;;13.88;6.22;;;;;;;46.67;13.41;96848.44;5086198;28;20085;-78
2021/08/17 09:04:51;;;;;;;7.45;5.47;;;;;;;47.49;12.20;96845.91;5069281;28;20016;-78
2021/08/17 09:07:32;;;;;;;6.25;5.60;;;;;;;48.11;11.94;96838.03;5086434;28;20044;-78
2021/08/17 09:10:24;;;;;;;7.93;5.43;;;;;;;47.55;12.47;96833.19;5052845;28;20393;-78
2021/08/17 09:12:54;;;;;;;6.07;5.47;;;;;;;47.29;12.22;96841.94;5073217;28;20506;-78
2021/08/17 09:15:31;;;;;;;14.15;6.03;;;;;;;47.62;12.32;96822.13;5074659;28;20027;-78
2021/08/17 09:17:57;;;;;;;7.40;5.35;;;;;;;48.62;11.75;96833.66;5074546;28;20503;-78
2021/08/17 09:20:28;;;;;;;9.45;5.88;;;;;;;48.76;11.80;96821.91;5072815;28;20043;-78
2021/08/17 09:22:54;;;;;;;6.25;5.72;;;;;;;48.62;11.75;96818.63;5089565;28;20016;-77
2021/08/17 09:25:31;;;;;;;7.47;5.88;;;;;;;48.58;11.89;96824.19;5072634;28;20032;-78
2021/08/17 09:27:57;;;;;;;20.02;6.60;;;;;;;48.70;11.95;96827.00;5072553;28;20025;-79
2021/08/17 09:30:22;;;;;;;6.70;5.60;;;;;;;47.23;12.71;96820.66;5072439;28;20434;-78
2021/08/17 09:32:53;;;;;;;7.07;5.40;;;;;;;48.16;12.56;96822.75;5072409;28;20403;-78
2021/08/17 09:35:20;;;;;;;9.88;6.10;;;;;;;46.93;12.97;96814.25;5055851;28;20028;-78
2021/08/17 09:38:04;;;;;;;12.20;6.15;;;;;;;47.31;12.63;96825.44;5072271;28;20036;-77
2021/08/17 09:40:30;;;;;;;7.65;6.47;;;;;;;47.40;12.89;96819.66;5072543;28;20032;-76
2021/08/17 09:42:55;;;;;;;7.28;6.32;;;;;;;46.78;13.21;96803.53;5072462;28;20081;-77
2021/08/17 09:45:22;;;;;;;12.27;6.82;;;;;;;46.29;13.34;96803.22;5055500;28;20102;-77
2021/08/17 09:47:56;;;;;;;9.55;6.47;;;;;;;47.14;12.90;96806.56;5073322;28;20404;-77
2021/08/17 09:50:38;;;;;;;11.20;6.38;;;;;;;48.41;11.87;96800.88;5072097;28;20036;-78
2021/08/17 09:53:18;;;;;;;14.55;6.78;;;;;;;49.12;11.94;96789.72;5072707;28;20036;-77
2021/08/17 09:55:48;;;;;;;10.88;6.50;;;;;;;48.32;11.91;96793.34;5055474;28;20036;-77
2021/08/17 09:58:31;;;;;;;8.30;6.20;;;;;;;46.70;12.75;96790.28;5055506;28;20055;-78
2021/08/17 10:00:59;;;;;;;7.53;6.38;;;;;;;47.20;13.07;96788.19;5071927;28;20021;-78
2021/08/17 10:03:25;;;;;;;11.07;7.03;;;;;;;48.28;11.79;96786.72;5089167;28;20024;-78
2021/08/17 10:05:52;;;;;;;12.05;6.40;;;;;;;47.11;12.91;96784.56;5071809;28;20023;-78
2021/08/17 10:08:18;;;;;;;8.32;6.72;;;;;;;48.01;12.35;96784.56;5072098;28;20021;-78
2021/08/17 10:10:49;;;;;;;19.17;7.13;;;;;;;48.83;11.82;96786.00;5073009;28;20036;-78
2021/08/17 10:13:20;;;;;;;9.20;7.00;;;;;;;46.99;12.50;96776.03;5072000;28;20024;-77
2021/08/17 10:15:46;;;;;;;9.00;6.55;;;;;;;47.90;12.27;96783.41;5071530;28;20107;-77
2021/08/17 10:18:17;;;;;;;10.02;7.25;;;;;;;50.17;11.31;96782.41;5055111;28;20025;-78
2021/08/17 10:20:45;;;;;;;8.77;6.90;;;;;;;51.18;10.32;96779.47;5071532;28;20043;-77
2021/08/17 10:23:17;;;;;;;15.07;7.13;;;;;;;52.11;9.99;96789.41;5088515;28;20059;-78
2021/08/17 10:25:43;;;;;;;14.23;7.40;;;;;;;49.05;11.79;96773.28;5071397;28;20484;-77
2021/08/17 10:28:24;;;;;;;17.73;7.25;;;;;;;50.66;11.03;96775.09;5071528;28;20016;-78
2021/08/17 10:30:49;;;;;;;10.20;7.65;;;;;;;51.50;10.69;96780.94;5071382;28;20036;-78
2021/08/17 10:33:41;;;;;;;8.73;7.53;;;;;;;52.14;9.98;96780.06;5072761;28;20033;-76
2021/08/17 10:36:11;;;;;;;18.42;9.32;;;;;;;51.17;10.49;96766.38;5071596;28;20025;-77
2021/08/17 10:38:47;;;;;;;17.40;7.70;;;;;;;50.51;11.07;96761.69;5070981;28;20029;-77
2021/08/17 10:41:14;;;;;;;10.73;7.88;;;;;;;50.55;10.78;96767.47;5072789;28;20021;-77
2021/08/17 10:43:45;;;;;;;9.60;7.40;;;;;;;50.80;10.90;96763.16;5072395;28;20021;-77
2021/08/17 10:46:12;;;;;;;10.00;7.88;;;;;;;51.97;10.59;96760.56;5072372;28;20032;-77
2021/08/17 10:48:46;;;;;;;27.83;7.80;;;;;;;52.59;10.31;96764.03;5071032;28;20559;-78
2021/08/17 10:51:37;;;;;;;15.35;9.63;;;;;;;53.46;9.53;96766.41;5072441;28;20024;-77
2021/08/17 10:54:03;;;;;;;15.43;8.10;;;;;;;53.73;9.37;96758.53;5070794;28;20024;-78
2021/08/17 10:56:33;;;;;;;13.43;8.38;;;;;;;50.95;10.67;96753.69;5070792;28;20059;-77
2021/08/17 10:58:59;;;;;;;15.75;8.07;;;;;;;47.36;12.85;96734.47;5070472;28;20032;-77
2021/08/17 11:01:30;;;;;;;9.30;8.32;;;;;;;48.17;12.38;96745.78;5070450;28;20555;-77
2021/08/17 11:03:59;;;;;;;9.73;8.05;;;;;;;48.21;12.11;96732.50;5071793;28;20035;-77
2021/08/17 11:06:56;;;;;;;8.68;7.78;;;;;;;50.21;11.04;96741.44;5071885;28;20036;-78
2021/08/17 11:09:36;;;;;;;12.20;8.63;;;;;;;50.62;10.95;96730.56;5053961;28;20029;-77
2021/08/17 11:12:07;;;;;;;13.77;8.52;;;;;;;50.85;11.18;96731.50;5070433;28;20031;-78
2021/08/17 11:14:37;;;;;;;13.55;8.52;;;;;;;52.46;10.21;96737.72;5087407;28;20479;-78
2021/08/17 11:17:07;;;;;;;11.38;8.90;;;;;;;51.90;10.14;96735.56;5053731;28;20403;-77
2021/08/17 11:19:38;;;;;;;11.10;8.88;;;;;;;50.11;11.10;96718.41;5070426;28;20119;-78
2021/08/17 11:22:06;;;;;;;10.43;9.32;;;;;;;50.47;11.28;96718.03;5069973;28;20030;-79
2021/08/17 11:24:36;;;;;;;14.45;9.52;;;;;;;50.35;10.96;96719.03;5069997;28;20052;-78
2021/08/17 11:27:04;;;;;;;11.00;9.10;;;;;;;49.69;11.45;96719.00;5071393;28;20115;-77
2021/08/17 11:29:39;;;;;;;12.23;9.23;;;;;;;51.25;10.97;96714.00;5070331;28;20111;-78